createdAt,value
2023-03-02T00:00:46.044Z,97719.19
2023-03-02T00:03:20.692Z,97721.41
2023-03-02T00:05:47.511Z,97717.31
2023-03-02T00:08:18.703Z,97715.91
2023-03-02T00:10:46.708Z,97707.34
2023-03-02T00:13:14.150Z,97721.56
2023-03-02T00:15:57.528Z,97720.03
2023-03-02T00:18:24.386Z,97713.66
2023-03-02T00:20:51.423Z,97708.34
2023-03-02T00:23:23.624Z,97714.69
2023-03-02T00:31:40.294Z,97704.06
2023-03-02T00:34:07.932Z,97708.09
2023-03-02T00:36:35.408Z,97702.47
2023-03-02T00:39:05.675Z,97701.34
2023-03-02T00:41:33.753Z,97696.31
2023-03-02T00:44:01.562Z,97695.03
2023-03-02T00:47:23.616Z,97691.13
2023-03-02T00:49:50.502Z,97690.19
2023-03-02T00:52:17.672Z,97680.88
2023-03-02T00:55:31.319Z,97678.09
2023-03-02T00:58:01.619Z,97673.41
2023-03-02T01:00:29.983Z,97675.84
2023-03-02T01:03:04.125Z,97668.84
2023-03-02T01:05:56.530Z,97663.44
2023-03-02T01:08:45.846Z,97667.59
2023-03-02T01:11:20.094Z,97667.34
2023-03-02T01:13:48.295Z,97669.75
2023-03-02T01:16:15.735Z,97662.84
2023-03-02T01:21:58.988Z,97660.22
2023-03-02T01:24:28.649Z,97667.41
2023-03-02T01:26:56.438Z,97661.81
2023-03-02T01:29:27.229Z,97668.53
2023-03-02T01:33:03.487Z,97665.91
2023-03-02T01:34:48.424Z,97654.19
2023-03-02T01:37:38.984Z,97655.75
2023-03-02T01:40:06.869Z,97660.88
2023-03-02T01:42:47.405Z,97653.22
2023-03-02T01:45:57.619Z,97656.78
2023-03-02T01:48:45.787Z,97657.09
2023-03-02T01:51:21.933Z,97650.19
2023-03-02T01:53:55.385Z,97650.84
2023-03-02T01:56:59.130Z,97644.84
2023-03-02T01:59:32.991Z,97650.34
2023-03-02T02:02:24.006Z,97654.00
2023-03-02T02:09:06.698Z,97652.13
2023-03-02T02:11:38.926Z,97649.22
2023-03-02T02:15:26.583Z,97646.91
2023-03-02T02:18:09.452Z,97652.31
2023-03-02T02:20:40.291Z,97647.00
2023-03-02T02:23:29.509Z,97651.38
2023-03-02T02:25:56.483Z,97647.75
2023-03-02T02:32:43.579Z,97651.50
2023-03-02T02:32:49.343Z,97651.91
2023-03-02T02:39:38.102Z,97648.97
2023-03-02T02:42:19.457Z,97654.19
2023-03-02T02:44:59.812Z,97650.44
2023-03-02T02:50:35.340Z,97656.22
2023-03-02T02:56:09.481Z,97654.75
2023-03-02T02:58:44.271Z,97660.88
2023-03-02T03:01:17.088Z,97664.25
2023-03-02T03:04:21.249Z,97661.53
2023-03-02T03:06:55.698Z,97661.06
2023-03-02T03:09:23.302Z,97662.75
2023-03-02T03:11:53.617Z,97666.28
2023-03-02T03:15:01.668Z,97670.97
2023-03-02T03:18:03.489Z,97658.03
2023-03-02T03:20:32.794Z,97667.34
2023-03-02T03:23:21.720Z,97665.94
2023-03-02T03:25:49.400Z,97667.81
2023-03-02T03:28:42.547Z,97681.06
2023-03-02T03:31:10.013Z,97680.88
2023-03-02T03:33:38.192Z,97678.81
2023-03-02T03:36:09.794Z,97680.31
2023-03-02T03:38:42.876Z,97678.44
2023-03-02T03:41:14.636Z,97676.38
2023-03-02T03:43:47.997Z,97679.41
2023-03-02T03:46:27.403Z,97679.41
2023-03-02T03:49:11.240Z,97676.38
2023-03-02T03:51:38.648Z,97667.72
2023-03-02T03:54:41.047Z,97672.28
2023-03-02T03:59:52.081Z,97669.88
2023-03-02T04:02:31.584Z,97669.25
2023-03-02T04:05:09.052Z,97664.88
2023-03-02T04:07:38.090Z,97668.13
2023-03-02T04:10:19.851Z,97677.63
2023-03-02T04:13:31.178Z,97672.88
2023-03-02T04:22:01.823Z,97657.94
2023-03-02T04:24:29.213Z,97663.16
2023-03-02T04:30:08.455Z,97657.28
2023-03-02T04:32:58.631Z,97659.00
2023-03-02T04:35:55.367Z,97660.97
2023-03-02T04:38:52.757Z,97652.56
2023-03-02T04:41:51.007Z,97671.19
2023-03-02T04:44:18.736Z,97671.00
2023-03-02T04:46:50.691Z,97664.94
2023-03-02T04:49:23.322Z,97662.16
2023-03-02T04:52:17.154Z,97654.03
2023-03-02T04:54:57.786Z,97656.56
2023-03-02T05:01:09.196Z,97661.41
2023-03-02T05:04:02.830Z,97665.59
2023-03-02T05:06:33.286Z,97665.03
2023-03-02T05:09:10.283Z,97669.59
2023-03-02T05:11:40.585Z,97665.56
2023-03-02T05:14:10.044Z,97669.97
2023-03-02T05:16:41.409Z,97674.81
2023-03-02T05:19:13.582Z,97675.47
2023-03-02T05:21:41.341Z,97678.25
2023-03-02T05:24:23.282Z,97690.72
2023-03-02T05:27:27.257Z,97693.16
2023-03-02T05:30:01.053Z,97686.63
2023-03-02T05:32:30.284Z,97696.72
2023-03-02T05:34:57.295Z,97696.16
2023-03-02T05:37:26.336Z,97698.78
2023-03-02T05:42:47.125Z,97701.75
2023-03-02T05:45:26.172Z,97704.25
2023-03-02T05:48:03.035Z,97706.38
2023-03-02T05:50:33.397Z,97712.38
2023-03-02T05:53:02.545Z,97717.59
2023-03-02T05:55:29.960Z,97713.31
2023-03-02T05:57:57.225Z,97720.56
2023-03-02T06:00:26.299Z,97719.81
2023-03-02T06:02:53.166Z,97715.50
2023-03-02T06:05:24.350Z,97726.81
2023-03-02T06:07:51.125Z,97720.34
2023-03-02T06:10:43.203Z,97717.47
2023-03-02T06:13:18.458Z,97711.97
2023-03-02T06:15:45.430Z,97712.50
2023-03-02T06:18:14.685Z,97712.88
2023-03-02T06:20:44.559Z,97711.81
2023-03-02T06:23:12.369Z,97714.13
2023-03-02T06:25:42.303Z,97718.19
2023-03-02T06:28:12.184Z,97729.09
2023-03-02T06:30:39.005Z,97720.66
2023-03-02T06:33:06.089Z,97709.53
2023-03-02T06:35:33.848Z,97709.69
2023-03-02T06:38:00.657Z,97716.50
2023-03-02T06:40:27.610Z,97719.59
2023-03-02T06:43:04.418Z,97708.59
2023-03-02T06:45:34.132Z,97705.97
2023-03-02T06:51:12.865Z,97713.16
2023-03-02T06:53:39.818Z,97715.53
2023-03-02T06:56:08.470Z,97703.41
2023-03-02T06:58:38.048Z,97695.41
2023-03-02T07:01:09.022Z,97708.91
2023-03-02T07:03:40.113Z,97702.84
2023-03-02T07:06:16.537Z,97703.41
2023-03-02T07:08:50.279Z,97706.59
2023-03-02T07:12:37.718Z,97698.00
2023-03-02T07:18:21.005Z,97696.22
2023-03-02T07:20:48.238Z,97705.06
2023-03-02T07:23:15.872Z,97706.03
2023-03-02T07:25:42.783Z,97712.53
2023-03-02T07:28:10.192Z,97713.69
2023-03-02T07:30:43.030Z,97712.84
2023-03-02T07:33:25.534Z,97706.97
2023-03-02T07:35:52.553Z,97709.75
2023-03-02T07:38:49.480Z,97719.44
2023-03-02T07:44:14.852Z,97720.56
2023-03-02T07:46:42.025Z,97724.28
2023-03-02T07:49:09.330Z,97714.97
2023-03-02T07:51:36.273Z,97719.63
2023-03-02T07:54:05.164Z,97709.59
2023-03-02T07:56:32.125Z,97708.28
2023-03-02T07:58:59.010Z,97707.50
2023-03-02T08:01:25.972Z,97703.97
2023-03-02T08:03:53.666Z,97700.63
2023-03-02T08:06:22.479Z,97709.75
2023-03-02T08:08:51.037Z,97710.31
2023-03-02T08:11:42.251Z,97707.69
2023-03-02T08:14:12.433Z,97704.22
2023-03-02T08:16:39.979Z,97708.63
2023-03-02T08:19:10.916Z,97705.03
2023-03-02T08:22:03.232Z,97706.34
2023-03-02T08:24:30.343Z,97707.47
2023-03-02T08:27:13.576Z,97709.72
2023-03-02T08:30:26.739Z,97702.78
2023-03-02T08:32:57.259Z,97701.50
2023-03-02T08:35:24.028Z,97703.75
2023-03-02T08:38:24.846Z,97707.50
2023-03-02T08:40:39.277Z,97701.91
2023-03-02T08:43:08.054Z,97697.50
2023-03-02T08:45:35.345Z,97694.22
2023-03-02T08:48:02.537Z,97691.19
2023-03-02T08:50:30.663Z,97696.81
2023-03-02T08:52:57.942Z,97693.13
2023-03-02T08:55:25.495Z,97696.00
2023-03-02T08:57:55.785Z,97697.63
2023-03-02T09:00:22.806Z,97686.88
2023-03-02T09:02:49.659Z,97692.16
2023-03-02T09:05:19.654Z,97677.34
2023-03-02T09:07:46.531Z,97695.97
2023-03-02T09:10:15.185Z,97690.88
2023-03-02T09:12:45.811Z,97682.81
2023-03-02T09:16:14.849Z,97685.13
2023-03-02T09:18:36.156Z,97686.59
2023-03-02T09:21:04.301Z,97685.63
2023-03-02T09:23:46.114Z,97689.31
2023-03-02T09:30:05.341Z,97677.59
2023-03-02T09:36:36.681Z,97673.38
2023-03-02T09:39:20.349Z,97673.38
2023-03-02T09:43:02.849Z,97674.75
2023-03-02T09:45:50.474Z,97669.84
2023-03-02T09:48:48.651Z,97669.28
2023-03-02T09:55:09.412Z,97660.81
2023-03-02T09:57:40.922Z,97658.38
2023-03-02T10:00:35.134Z,97656.16
2023-03-02T10:03:17.574Z,97653.22
2023-03-02T10:06:22.492Z,97654.03
2023-03-02T10:08:51.053Z,97652.53
2023-03-02T10:11:36.872Z,97647.13
2023-03-02T10:14:36.228Z,97640.38
2023-03-02T10:18:13.226Z,97645.78
2023-03-02T10:21:28.182Z,97633.47
2023-03-02T10:24:45.307Z,97641.44
2023-03-02T10:30:53.254Z,97637.53
2023-03-02T10:37:12.542Z,97630.91
2023-03-02T10:40:06.452Z,97625.28
2023-03-02T10:42:55.096Z,97625.47
2023-03-02T10:45:34.084Z,97623.81
2023-03-02T10:48:15.032Z,97631.00
2023-03-02T10:50:45.434Z,97634.47
2023-03-02T10:54:18.420Z,97640.09
2023-03-02T10:56:51.850Z,97628.75
2023-03-02T10:59:28.267Z,97627.09
2023-03-02T11:05:17.596Z,97634.41
2023-03-02T11:08:08.960Z,97629.38
2023-03-02T11:10:40.304Z,97629.00
2023-03-02T11:13:24.518Z,97624.91
2023-03-02T11:15:54.142Z,97614.16
2023-03-02T11:18:25.956Z,97612.28
2023-03-02T11:21:04.659Z,97615.00
2023-03-02T11:23:59.386Z,97607.25
2023-03-02T11:27:00.253Z,97612.50
2023-03-02T11:29:58.253Z,97610.19
2023-03-02T11:32:54.499Z,97609.47
2023-03-02T11:36:01.735Z,97620.00
2023-03-02T11:38:47.803Z,97612.91
2023-03-02T11:41:36.713Z,97607.56
2023-03-02T11:44:18.806Z,97617.09
2023-03-02T11:47:21.711Z,97607.25
2023-03-02T11:50:08.008Z,97613.31
2023-03-02T11:52:43.259Z,97615.78
2023-03-02T11:55:21.225Z,97612.59
2023-03-02T11:57:54.791Z,97617.38
2023-03-02T12:00:42.838Z,97614.88
2023-03-02T12:03:15.971Z,97615.47
2023-03-02T12:06:01.616Z,97609.41
2023-03-02T12:08:42.012Z,97602.72
2023-03-02T12:11:25.519Z,97603.75
2023-03-02T12:13:55.423Z,97610.22
2023-03-02T12:16:42.633Z,97616.66
2023-03-02T12:19:40.503Z,97613.53
2023-03-02T12:22:12.577Z,97620.50
2023-03-02T12:24:45.362Z,97621.38
2023-03-02T12:27:21.084Z,97616.75
2023-03-02T12:29:57.860Z,97619.56
2023-03-02T12:32:30.364Z,97607.97
2023-03-02T12:35:02.162Z,97613.75
2023-03-02T12:37:44.686Z,97608.09
2023-03-02T12:40:38.815Z,97610.25
2023-03-02T12:43:43.139Z,97608.34
2023-03-02T12:46:27.277Z,97613.69
2023-03-02T12:49:35.672Z,97610.13
2023-03-02T12:52:24.442Z,97613.69
2023-03-02T12:55:14.813Z,97608.16
2023-03-02T12:57:52.576Z,97603.91
2023-03-02T13:00:33.508Z,97606.72
2023-03-02T13:03:02.686Z,97614.66
2023-03-02T13:05:32.420Z,97614.28
2023-03-02T13:08:28.205Z,97612.59
2023-03-02T13:10:59.236Z,97606.84
2023-03-02T13:13:38.901Z,97614.19
2023-03-02T13:16:28.430Z,97610.66
2023-03-02T13:19:17.141Z,97604.22
2023-03-02T13:21:53.887Z,97603.28
2023-03-02T13:24:49.626Z,97600.50
2023-03-02T13:27:24.933Z,97602.63
2023-03-02T13:30:01.370Z,97604.78
2023-03-02T13:32:42.077Z,97600.03
2023-03-02T13:35:44.292Z,97599.47
2023-03-02T13:38:19.802Z,97596.47
2023-03-02T13:40:50.900Z,97596.28
2023-03-02T13:43:26.969Z,97594.88
2023-03-02T13:45:56.210Z,97591.44
2023-03-02T13:48:23.699Z,97591.84
2023-03-02T13:51:34.297Z,97588.31
2023-03-02T13:54:11.474Z,97581.41
2023-03-02T13:56:40.809Z,97586.63
2023-03-02T13:59:18.015Z,97575.25
2023-03-02T14:03:24.223Z,97587.34
2023-03-02T14:05:27.249Z,97584.38
2023-03-02T14:07:54.437Z,97575.06
2023-03-02T14:10:21.482Z,97581.47
2023-03-02T14:12:57.208Z,97579.25
2023-03-02T14:15:27.475Z,97575.81
2023-03-02T14:18:14.908Z,97581.84
2023-03-02T14:21:04.055Z,97580.28
2023-03-02T14:23:50.395Z,97573.19
2023-03-02T14:29:42.330Z,97570.97
2023-03-02T14:32:48.275Z,97577.03
2023-03-02T14:35:19.142Z,97569.50
2023-03-02T14:37:49.766Z,97570.59
2023-03-02T14:40:37.678Z,97573.19
2023-03-02T14:43:05.034Z,97568.19
2023-03-02T14:45:34.777Z,97571.72
2023-03-02T14:48:01.770Z,97559.63
2023-03-02T14:51:05.075Z,97562.13
2023-03-02T14:53:45.415Z,97558.97
2023-03-02T14:56:27.120Z,97552.75
2023-03-02T14:58:54.326Z,97556.66
2023-03-02T15:01:24.161Z,97549.19
2023-03-02T15:04:27.714Z,97548.25
2023-03-02T15:07:09.558Z,97554.78
2023-03-02T15:09:57.773Z,97556.47
2023-03-02T15:12:45.235Z,97556.06
2023-03-02T15:21:45.805Z,97549.38
2023-03-02T15:24:33.040Z,97553.75
2023-03-02T15:30:50.512Z,97557.19
2023-03-02T15:34:01.283Z,97544.16
2023-03-02T15:37:58.962Z,97545.84
2023-03-02T15:41:44.409Z,97555.72
2023-03-02T15:44:23.704Z,97555.81
2023-03-02T15:47:34.063Z,97553.41
2023-03-02T15:53:10.390Z,97549.91
2023-03-02T15:55:43.658Z,97550.84
2023-03-02T15:58:10.968Z,97553.47
2023-03-02T16:00:50.377Z,97549.56
2023-03-02T16:03:19.929Z,97554.03
2023-03-02T16:06:06.210Z,97559.91
2023-03-02T16:08:43.381Z,97553.94
2023-03-02T16:11:23.994Z,97557.19
2023-03-02T16:13:52.773Z,97556.91
2023-03-02T16:16:21.244Z,97563.81
2023-03-02T16:18:52.579Z,97560.16
2023-03-02T16:21:24.478Z,97558.03
2023-03-02T16:23:52.994Z,97568.28
2023-03-02T16:26:22.386Z,97566.31
2023-03-02T16:28:53.513Z,97570.41
2023-03-02T16:31:27.228Z,97568.56
2023-03-02T16:33:56.341Z,97574.59
2023-03-02T16:36:24.055Z,97576.38
2023-03-02T16:38:51.178Z,97575.53
2023-03-02T16:41:21.573Z,97576.38
2023-03-02T16:43:51.968Z,97577.28
2023-03-02T16:46:30.537Z,97578.78
2023-03-02T16:49:15.079Z,97576.06
2023-03-02T16:51:43.945Z,97579.44
2023-03-02T16:54:55.607Z,97581.94
2023-03-02T16:57:34.376Z,97582.13
2023-03-02T17:06:58.287Z,97571.69
2023-03-02T17:09:15.089Z,97575.97
2023-03-02T17:11:42.025Z,97574.13
2023-03-02T17:14:14.635Z,97574.78
2023-03-02T17:16:45.313Z,97586.22
2023-03-02T17:19:42.624Z,97578.50
2023-03-02T17:22:53.456Z,97581.00
2023-03-02T17:25:26.223Z,97574.88
2023-03-02T17:27:54.371Z,97572.28
2023-03-02T17:30:30.754Z,97573.31
2023-03-02T17:33:03.041Z,97587.72
2023-03-02T17:35:36.629Z,97577.50
2023-03-02T17:38:09.726Z,97579.53
2023-03-02T17:40:43.033Z,97584.75
2023-03-02T17:43:10.554Z,97581.41
2023-03-02T17:45:43.328Z,97587.66
2023-03-02T17:48:10.429Z,97584.94
2023-03-02T17:50:40.017Z,97585.88
2023-03-02T17:53:17.909Z,97593.22
2023-03-02T17:55:47.807Z,97592.09
2023-03-02T17:58:44.217Z,97587.06
2023-03-02T18:01:15.321Z,97594.34
2023-03-02T18:03:47.521Z,97589.78
2023-03-02T18:06:24.951Z,97590.13
2023-03-02T18:08:53.037Z,97588.19
2023-03-02T18:11:23.093Z,97588.00
2023-03-02T18:13:50.981Z,97590.72
2023-03-02T18:16:29.111Z,97589.78
2023-03-02T18:18:58.269Z,97586.41
2023-03-02T18:21:32.297Z,97593.84
2023-03-02T18:24:11.862Z,97587.81
2023-03-02T18:26:40.170Z,97597.41
2023-03-02T18:29:17.692Z,97594.03
2023-03-02T18:31:54.504Z,97601.50
2023-03-02T18:34:43.602Z,97593.66
2023-03-02T18:37:28.862Z,97590.31
2023-03-02T18:42:42.165Z,97600.09
2023-03-02T18:45:19.123Z,97592.75
2023-03-02T18:47:56.698Z,97606.19
2023-03-02T18:50:40.427Z,97604.47
2023-03-02T18:53:10.000Z,97600.66
2023-03-02T18:55:52.983Z,97599.06
2023-03-02T18:58:25.339Z,97604.88
2023-03-02T19:01:20.348Z,97606.53
2023-03-02T19:07:11.079Z,97599.44
2023-03-02T19:09:44.321Z,97605.78
2023-03-02T19:12:15.221Z,97598.88
2023-03-02T19:14:44.792Z,97597.75
2023-03-02T19:17:15.459Z,97598.59
2023-03-02T19:19:48.981Z,97598.69
2023-03-02T19:22:16.850Z,97600.75
2023-03-02T19:24:50.553Z,97595.53
2023-03-02T19:27:36.430Z,97590.53
2023-03-02T19:30:04.575Z,97592.53
2023-03-02T19:32:32.142Z,97594.31
2023-03-02T19:35:20.875Z,97600.00
2023-03-02T19:37:58.120Z,97605.13
2023-03-02T19:40:29.403Z,97599.84
2023-03-02T19:43:10.377Z,97601.88
2023-03-02T19:45:41.274Z,97599.56
2023-03-02T19:48:20.070Z,97602.81
2023-03-02T19:51:02.704Z,97602.91
2023-03-02T19:53:45.186Z,97590.97
2023-03-02T19:56:35.576Z,97584.84
2023-03-02T19:59:44.114Z,97589.00
2023-03-02T20:02:11.575Z,97594.44
2023-03-02T20:04:47.650Z,97578.78
2023-03-02T20:07:21.686Z,97578.78
2023-03-02T20:09:54.462Z,97572.81
2023-03-02T20:12:42.267Z,97578.88
2023-03-02T20:15:15.462Z,97566.84
2023-03-02T20:17:42.204Z,97575.97
2023-03-02T20:21:07.953Z,97569.84
2023-03-02T20:23:25.111Z,97557.53
2023-03-02T20:25:59.128Z,97546.84
2023-03-02T20:29:23.508Z,97558.13
2023-03-02T20:31:57.719Z,97555.09
2023-03-02T20:34:25.067Z,97548.34
2023-03-02T20:36:53.663Z,97545.16
2023-03-02T20:39:36.286Z,97547.13
2023-03-02T20:42:10.283Z,97539.28
2023-03-02T20:44:49.657Z,97525.34
2023-03-02T20:47:47.442Z,97535.84
2023-03-02T20:50:44.830Z,97538.16
2023-03-02T20:53:17.867Z,97533.16
2023-03-02T20:55:47.606Z,97533.88
2023-03-02T20:58:41.752Z,97523.28
2023-03-02T21:01:12.919Z,97525.13
2023-03-02T21:03:52.807Z,97522.50
2023-03-02T21:06:23.409Z,97520.13
2023-03-02T21:09:10.893Z,97522.25
2023-03-02T21:12:01.753Z,97518.16
2023-03-02T21:14:31.055Z,97525.13
2023-03-02T21:17:19.917Z,97506.53
2023-03-02T21:20:11.873Z,97521.00
2023-03-02T21:22:49.463Z,97515.06
2023-03-02T21:26:35.692Z,97509.47
2023-03-02T21:28:26.411Z,97492.75
2023-03-02T21:34:26.357Z,97485.78
2023-03-02T21:37:07.087Z,97508.16
2023-03-02T21:45:53.239Z,97495.53
2023-03-02T21:48:22.830Z,97491.22
2023-03-02T21:51:31.989Z,97488.41
2023-03-02T21:57:10.314Z,97483.75
2023-03-02T21:59:53.976Z,97480.22
2023-03-02T22:02:37.128Z,97484.28
2023-03-02T22:05:37.173Z,97480.16
2023-03-02T22:08:51.565Z,97477.09
2023-03-02T22:14:29.351Z,97475.34
2023-03-02T22:17:16.321Z,97478.50
2023-03-02T22:19:57.774Z,97471.59
2023-03-02T22:25:29.000Z,97469.28
2023-03-02T22:48:46.518Z,97470.81
2023-03-02T22:51:22.814Z,97457.00
2023-03-02T22:54:35.629Z,97467.44
2023-03-02T22:57:06.725Z,97458.28
2023-03-02T23:02:47.440Z,97455.19
2023-03-02T23:05:31.235Z,97454.19
2023-03-02T23:08:50.162Z,97448.22
2023-03-02T23:11:38.241Z,97456.66
2023-03-02T23:14:25.635Z,97448.97
2023-03-02T23:17:24.760Z,97453.34
2023-03-02T23:20:16.577Z,97449.78
2023-03-02T23:22:48.474Z,97448.00
2023-03-02T23:25:20.504Z,97452.09
2023-03-02T23:27:48.491Z,97451.19
2023-03-02T23:30:21.727Z,97449.03
2023-03-02T23:32:54.041Z,97447.34
2023-03-02T23:35:24.732Z,97446.31
2023-03-02T23:37:54.208Z,97441.09
2023-03-02T23:41:02.858Z,97437.53
2023-03-02T23:43:29.870Z,97434.41
2023-03-02T23:48:46.284Z,97425.44
2023-03-02T23:51:16.642Z,97431.69
2023-03-02T23:53:56.593Z,97429.72
2023-03-02T23:56:30.535Z,97417.72
2023-03-02T23:59:10.067Z,97429.00
